Time;durP1;ratioP1;P1;durP2;ratioP2;P2;SDS_P1;SDS_P2;PMS_P1;PMS_P2;Temp;Humidity;BMP_temperature;BMP_pressure;BME280_temperature;BME280_humidity;BME280_pressure;Samples;Min_cycle;Max_cycle;Signal;HPM_P1;HPM_P2
2022/07/13 00:01:46;;;;;;;3.60;2.20;;;18.30;99.70;;;;;;4983422;28;20018;-70
2022/07/13 00:04:12;;;;;;;2.37;2.13;;;18.20;99.90;;;;;;4982991;28;20225;-70
2022/07/13 00:06:38;;;;;;;2.13;1.93;;;18.20;99.70;;;;;;4983367;28;20046;-70
2022/07/13 00:09:04;;;;;;;2.90;1.90;;;18.20;99.50;;;;;;4982979;28;20023;-71
2022/07/13 00:11:29;;;;;;;4.20;2.70;;;18.20;99.60;;;;;;4983033;28;20031;-70
2022/07/13 00:13:55;;;;;;;2.43;2.23;;;18.20;99.80;;;;;;4982959;28;20027;-70
2022/07/13 00:16:21;;;;;;;3.73;2.47;;;18.20;99.50;;;;;;4983240;28;20030;-70
2022/07/13 00:18:47;;;;;;;2.30;2.10;;;18.00;99.80;;;;;;4983115;28;20027;-70
2022/07/13 00:21:13;;;;;;;4.15;2.42;;;18.10;99.90;;;;;;4983141;28;20054;-70
2022/07/13 00:23:39;;;;;;;3.07;2.47;;;18.00;99.90;;;;;;4982527;28;20228;-71
2022/07/13 00:26:05;;;;;;;2.73;2.53;;;18.00;99.90;;;;;;4983189;28;20073;-71
2022/07/13 00:28:30;;;;;;;3.85;2.83;;;18.10;99.90;;;;;;4983036;28;20314;-71
2022/07/13 00:30:56;;;;;;;2.40;2.20;;;17.90;99.90;;;;;;4983148;28;20042;-71
2022/07/13 00:33:22;;;;;;;2.53;2.07;;;17.90;99.90;;;;;;4982876;28;20034;-71
2022/07/13 00:35:48;;;;;;;2.63;2.43;;;17.90;99.90;;;;;;4983197;28;20027;-71
2022/07/13 00:38:13;;;;;;;2.47;2.27;;;17.90;99.90;;;;;;4982996;28;20097;-71
2022/07/13 00:40:39;;;;;;;2.43;2.23;;;17.80;99.90;;;;;;4982786;28;20078;-71
2022/07/13 00:43:05;;;;;;;4.40;2.50;;;17.80;99.90;;;;;;4982771;28;20058;-71
2022/07/13 00:45:31;;;;;;;4.90;2.50;;;17.80;99.90;;;;;;4983008;28;20035;-71
2022/07/13 00:47:57;;;;;;;2.40;2.15;;;17.60;99.90;;;;;;4982888;28;20054;-71
2022/07/13 00:50:22;;;;;;;2.70;2.50;;;17.70;99.90;;;;;;4982977;28;20019;-71
2022/07/13 00:52:48;;;;;;;4.27;2.30;;;17.60;99.90;;;;;;4982626;28;20222;-71
2022/07/13 00:55:14;;;;;;;3.27;2.23;;;17.60;99.90;;;;;;4965460;28;20261;-71
2022/07/13 00:57:40;;;;;;;2.27;1.83;;;17.60;99.90;;;;;;4982841;28;20042;-71
2022/07/13 01:00:09;;;;;;;3.70;2.40;;;17.50;99.90;;;;;;4983012;28;20022;-71
2022/07/13 01:02:39;;;;;;;2.28;2.08;;;17.40;99.90;;;;;;4981613;28;20081;-71
2022/07/13 01:05:05;;;;;;;4.22;2.28;;;17.50;99.90;;;;;;4984050;28;20041;-71
2022/07/13 01:07:32;;;;;;;3.85;2.20;;;17.40;99.90;;;;;;4986421;28;20026;-71
2022/07/13 01:10:00;;;;;;;2.70;2.47;;;17.40;99.90;;;;;;4984720;28;20025;-71
2022/07/13 01:12:30;;;;;;;4.20;2.83;;;17.40;99.90;;;;;;4985450;28;20026;-71
2022/07/13 01:14:57;;;;;;;2.63;2.30;;;17.40;99.90;;;;;;4969382;28;20046;-71
2022/07/13 01:17:23;;;;;;;11.05;3.15;;;17.40;99.90;;;;;;4985154;28;20039;-71
2022/07/13 01:19:49;;;;;;;3.08;2.20;;;17.40;99.90;;;;;;4985205;28;20033;-71
2022/07/13 01:22:21;;;;;;;2.47;2.28;;;17.30;99.90;;;;;;4969214;28;20073;-70
2022/07/13 01:24:47;;;;;;;4.05;2.47;;;17.20;99.90;;;;;;4969473;28;20090;-70
2022/07/13 01:27:13;;;;;;;3.33;2.10;;;17.30;99.90;;;;;;4985983;28;20023;-70
2022/07/13 01:29:39;;;;;;;3.27;2.67;;;17.10;99.90;;;;;;4982022;28;20572;-71
2022/07/13 01:32:05;;;;;;;3.90;2.53;;;17.20;99.90;;;;;;4976505;28;20039;-71
2022/07/13 01:34:31;;;;;;;3.83;2.60;;;17.10;99.90;;;;;;4984390;28;20284;-71
2022/07/13 01:36:57;;;;;;;2.43;2.23;;;17.10;99.90;;;;;;5009464;23;20316;-73
2022/07/13 01:39:23;;;;;;;3.08;2.35;;;17.00;99.90;;;;;;4985466;28;20252;-73
2022/07/13 01:41:49;;;;;;;4.05;2.38;;;17.00;99.90;;;;;;5013390;28;20089;-74
2022/07/13 01:44:15;;;;;;;4.33;2.47;;;17.00;99.90;;;;;;5005389;28;20029;-74
2022/07/13 01:46:41;;;;;;;5.03;2.47;;;16.90;99.90;;;;;;5005810;28;20050;-73
2022/07/13 01:49:07;;;;;;;2.53;2.33;;;16.90;99.90;;;;;;5005610;28;20038;-73
2022/07/13 01:51:32;;;;;;;4.73;2.63;;;16.90;99.90;;;;;;5004382;28;20034;-73
2022/07/13 01:53:58;;;;;;;5.43;2.43;;;16.70;99.90;;;;;;5004987;28;20034;-74
2022/07/13 01:56:24;;;;;;;3.60;2.20;;;16.70;99.90;;;;;;5001406;28;20029;-73
2022/07/13 01:58:50;;;;;;;2.77;2.50;;;16.70;99.90;;;;;;4998216;28;20030;-73
2022/07/13 02:01:15;;;;;;;3.50;2.13;;;16.70;99.90;;;;;;5004218;28;20225;-73
2022/07/13 02:03:41;;;;;;;3.83;2.57;;;16.70;99.90;;;;;;5004886;28;20029;-73
2022/07/13 02:06:07;;;;;;;2.40;2.20;;;16.50;99.90;;;;;;5004896;28;20033;-73
2022/07/13 02:08:33;;;;;;;2.60;2.40;;;16.60;99.90;;;;;;4991976;28;20042;-73
2022/07/13 02:10:59;;;;;;;3.22;2.63;;;16.60;99.90;;;;;;4985432;28;20023;-72
2022/07/13 02:13:24;;;;;;;3.83;2.87;;;16.50;99.90;;;;;;4985216;28;20026;-72
2022/07/13 02:15:50;;;;;;;3.53;2.30;;;16.60;99.90;;;;;;4985199;28;20019;-72
2022/07/13 02:18:16;;;;;;;3.00;2.57;;;16.50;99.90;;;;;;4983639;28;20077;-72
2022/07/13 02:20:42;;;;;;;3.43;2.37;;;16.40;99.90;;;;;;4984185;28;20031;-71
2022/07/13 02:23:08;;;;;;;3.13;2.53;;;16.50;99.90;;;;;;4984789;28;20046;-71
2022/07/13 02:25:34;;;;;;;5.03;2.63;;;16.50;99.90;;;;;;4985149;28;20085;-71
2022/07/13 02:27:59;;;;;;;7.43;2.67;;;16.50;99.90;;;;;;4985061;28;20030;-71
2022/07/13 02:30:25;;;;;;;2.87;2.50;;;16.50;99.90;;;;;;4983753;28;20083;-71
2022/07/13 02:32:51;;;;;;;3.27;2.47;;;16.40;99.90;;;;;;4983865;28;20034;-71
2022/07/13 02:35:17;;;;;;;2.70;2.50;;;16.30;99.90;;;;;;4992988;28;20037;-72
2022/07/13 02:37:42;;;;;;;3.00;2.50;;;16.50;99.90;;;;;;4981747;28;20034;-72
2022/07/13 02:40:10;;;;;;;2.97;2.57;;;16.30;99.90;;;;;;4991566;28;20022;-72
2022/07/13 02:42:35;;;;;;;3.15;2.10;;;16.20;99.90;;;;;;4978929;28;20026;-72
2022/07/13 02:45:01;;;;;;;3.47;2.37;;;16.50;99.90;;;;;;5004046;28;20026;-71
2022/07/13 02:47:27;;;;;;;2.80;2.50;;;16.50;99.90;;;;;;5004060;28;20065;-71
2022/07/13 02:49:53;;;;;;;2.43;2.23;;;16.40;99.90;;;;;;5004157;28;20026;-72
2022/07/13 02:52:19;;;;;;;3.83;2.37;;;16.40;99.90;;;;;;5003823;28;20037;-72
2022/07/13 02:54:44;;;;;;;2.47;2.27;;;16.40;99.90;;;;;;5003772;28;20089;-72
2022/07/13 02:57:10;;;;;;;2.87;2.30;;;16.40;99.90;;;;;;5003931;28;20041;-71
2022/07/13 02:59:36;;;;;;;3.43;2.33;;;16.40;99.90;;;;;;5002869;28;20030;-71
2022/07/13 03:02:03;;;;;;;3.30;2.27;;;16.40;99.90;;;;;;5003812;28;20073;-71
2022/07/13 03:04:29;;;;;;;2.28;2.05;;;16.60;99.90;;;;;;5002605;28;20206;-71
2022/07/13 03:06:55;;;;;;;2.47;2.27;;;16.40;99.90;;;;;;5003636;28;20026;-71
2022/07/13 03:09:20;;;;;;;3.80;2.20;;;16.40;99.90;;;;;;4983124;28;20090;-71
2022/07/13 03:11:46;;;;;;;2.30;2.10;;;16.40;99.90;;;;;;4981881;28;20242;-71
2022/07/13 03:14:12;;;;;;;2.87;2.47;;;16.50;99.90;;;;;;4986908;28;20137;-72
2022/07/13 03:16:38;;;;;;;3.03;2.30;;;16.50;99.90;;;;;;5002891;28;20325;-71
2022/07/13 03:19:03;;;;;;;3.33;2.43;;;16.50;99.90;;;;;;5002359;28;20294;-72
2022/07/13 03:21:29;;;;;;;4.13;2.23;;;16.40;99.90;;;;;;5003439;28;20265;-72
2022/07/13 03:23:56;;;;;;;2.83;2.63;;;16.50;99.90;;;;;;5002946;28;20026;-72
2022/07/13 03:26:22;;;;;;;3.10;2.80;;;16.40;99.90;;;;;;5002379;28;20229;-72
2022/07/13 03:28:48;;;;;;;3.30;2.25;;;16.40;99.90;;;;;;4985274;28;20506;-72
2022/07/13 03:31:13;;;;;;;5.43;2.00;;;16.30;99.90;;;;;;5003426;28;20046;-71
2022/07/13 03:33:39;;;;;;;3.40;2.60;;;16.40;99.90;;;;;;5003095;28;20380;-72
2022/07/13 03:36:05;;;;;;;3.23;2.30;;;16.30;99.90;;;;;;5003368;28;20030;-72
2022/07/13 03:38:31;;;;;;;2.73;2.00;;;16.40;99.90;;;;;;4989223;28;20095;-72
2022/07/13 03:40:57;;;;;;;3.87;2.40;;;16.20;99.90;;;;;;4983821;28;20042;-72
2022/07/13 03:43:22;;;;;;;2.87;1.90;;;16.30;99.90;;;;;;4983527;28;20273;-72
2022/07/13 03:45:48;;;;;;;3.00;2.47;;;16.30;99.90;;;;;;4983631;28;20253;-72
2022/07/13 03:48:16;;;;;;;3.93;2.73;;;16.20;99.90;;;;;;4983699;28;20065;-71
2022/07/13 03:50:43;;;;;;;3.33;2.70;;;16.50;99.90;;;;;;4983644;28;20035;-72
2022/07/13 03:53:09;;;;;;;2.90;2.45;;;16.40;99.90;;;;;;4981991;28;20069;-72
2022/07/13 03:55:34;;;;;;;2.63;2.43;;;16.40;99.90;;;;;;4983584;28;20031;-72
2022/07/13 03:58:00;;;;;;;4.40;2.40;;;16.50;99.90;;;;;;4983495;28;20031;-72
2022/07/13 04:00:26;;;;;;;4.00;2.40;;;16.50;99.90;;;;;;4983501;28;20026;-72
2022/07/13 04:02:52;;;;;;;3.77;2.70;;;16.40;99.90;;;;;;4983353;28;20066;-71
2022/07/13 04:05:17;;;;;;;6.23;2.70;;;16.50;99.90;;;;;;4982129;28;20031;-71
2022/07/13 04:07:43;;;;;;;3.67;2.67;;;16.20;99.90;;;;;;4983125;28;20027;-70
2022/07/13 04:10:09;;;;;;;4.77;2.40;;;16.40;99.90;;;;;;4983518;28;20306;-72
2022/07/13 04:12:35;;;;;;;3.10;2.53;;;16.30;99.90;;;;;;4983257;28;20018;-71
2022/07/13 04:15:01;;;;;;;2.40;2.20;;;16.40;99.90;;;;;;4983170;28;20077;-70
2022/07/13 04:17:26;;;;;;;2.30;2.10;;;16.30;99.90;;;;;;4983396;28;20082;-71
2022/07/13 04:19:52;;;;;;;6.13;2.57;;;16.20;99.90;;;;;;4983381;28;20329;-71
2022/07/13 04:22:18;;;;;;;5.17;2.17;;;16.20;99.90;;;;;;4983270;28;20081;-71
2022/07/13 04:24:45;;;;;;;3.37;2.03;;;16.30;99.90;;;;;;4982742;28;20023;-71
2022/07/13 04:27:10;;;;;;;;;;;16.10;99.90;;;;;;4983602;28;20027;-71
2022/07/13 04:29:36;;;;;;;2.88;2.40;;;16.20;99.90;;;;;;4982898;28;19920;-71
2022/07/13 04:32:02;;;;;;;2.87;2.60;;;16.20;99.90;;;;;;4983113;28;20046;-72
2022/07/13 04:34:27;;;;;;;3.13;2.33;;;16.10;99.90;;;;;;4982896;28;20037;-72
2022/07/13 04:36:55;;;;;;;6.77;2.63;;;16.20;99.90;;;;;;4976766;28;20081;-72
2022/07/13 04:39:21;;;;;;;3.05;2.30;;;16.00;99.90;;;;;;4990272;28;20065;-72
2022/07/13 04:41:47;;;;;;;3.03;2.47;;;16.30;99.90;;;;;;5006489;28;20033;-72
2022/07/13 04:44:13;;;;;;;2.63;2.40;;;16.10;99.90;;;;;;5004748;28;20027;-72
2022/07/13 04:46:38;;;;;;;4.07;2.60;;;16.30;99.90;;;;;;4987278;28;20026;-72
2022/07/13 04:49:04;;;;;;;3.20;2.37;;;16.50;99.90;;;;;;4994698;28;20049;-72
2022/07/13 04:51:31;;;;;;;5.47;2.60;;;16.30;99.90;;;;;;4989901;28;20030;-73
2022/07/13 04:53:57;;;;;;;2.75;2.50;;;16.50;99.90;;;;;;4979003;28;20029;-73
2022/07/13 04:56:23;;;;;;;3.17;2.80;;;16.30;99.90;;;;;;4988958;28;20326;-73
2022/07/13 04:58:49;;;;;;;4.73;2.60;;;16.30;99.90;;;;;;4996921;28;20098;-73
2022/07/13 05:01:14;;;;;;;3.47;2.60;;;16.40;99.90;;;;;;4985842;28;20027;-73
2022/07/13 05:03:40;;;;;;;3.20;2.80;;;16.40;99.90;;;;;;4996782;28;20065;-73
2022/07/13 05:06:06;;;;;;;5.57;2.30;;;16.50;99.90;;;;;;5000986;28;20068;-72
2022/07/13 05:08:31;;;;;;;5.03;2.90;;;16.40;99.90;;;;;;4980585;28;20093;-73
2022/07/13 05:10:57;;;;;;;4.13;2.90;;;16.40;99.90;;;;;;4989192;28;20494;-74
2022/07/13 05:13:23;;;;;;;2.97;2.60;;;16.50;99.90;;;;;;4998163;28;20029;-73
2022/07/13 05:15:49;;;;;;;4.37;2.40;;;16.80;99.90;;;;;;4998746;28;20069;-73
2022/07/13 05:18:14;;;;;;;10.17;3.00;;;16.70;99.90;;;;;;4999727;28;20094;-73
2022/07/13 05:20:40;;;;;;;2.20;2.00;;;16.70;99.90;;;;;;4995133;28;20221;-71
2022/07/13 05:23:06;;;;;;;5.07;2.40;;;16.80;99.90;;;;;;4995940;28;20305;-70
2022/07/13 05:25:32;;;;;;;4.97;2.10;;;17.00;99.90;;;;;;4995537;28;20030;-70
2022/07/13 05:27:57;;;;;;;3.53;2.20;;;17.10;99.90;;;;;;4993929;28;20041;-71
2022/07/13 05:30:23;;;;;;;3.53;2.17;;;17.20;99.90;;;;;;4990229;28;20027;-71
2022/07/13 05:32:49;;;;;;;5.83;2.70;;;17.30;99.90;;;;;;4998141;28;20079;-71
2022/07/13 05:35:15;;;;;;;2.40;2.20;;;17.40;99.90;;;;;;4992187;28;20041;-71
2022/07/13 05:37:40;;;;;;;3.43;2.80;;;17.40;99.90;;;;;;4996074;28;20026;-71
2022/07/13 05:40:07;;;;;;;6.73;2.83;;;17.40;99.90;;;;;;5007424;28;20034;-71
2022/07/13 05:42:32;;;;;;;4.93;2.45;;;17.50;99.90;;;;;;5007705;28;20360;-71
2022/07/13 05:44:58;;;;;;;4.13;3.17;;;17.60;99.90;;;;;;5007134;28;20081;-72
2022/07/13 05:47:24;;;;;;;3.33;3.03;;;17.60;99.90;;;;;;5007517;28;20111;-71
2022/07/13 05:49:50;;;;;;;2.73;2.40;;;17.70;99.90;;;;;;5006224;28;20026;-71
2022/07/13 05:52:15;;;;;;;2.20;2.00;;;17.70;99.90;;;;;;5003282;28;20049;-71
2022/07/13 05:54:41;;;;;;;5.13;2.70;;;17.70;99.90;;;;;;5004929;28;20045;-72
2022/07/13 05:57:07;;;;;;;3.70;2.10;;;17.60;99.90;;;;;;5005258;28;20085;-71
2022/07/13 05:59:33;;;;;;;4.53;3.17;;;17.70;99.90;;;;;;5005374;28;20312;-71
2022/07/13 06:02:02;;;;;;;3.77;2.40;;;17.80;99.90;;;;;;4986212;28;20142;-71
2022/07/13 06:04:28;;;;;;;3.55;2.95;;;17.80;99.90;;;;;;4985392;28;20041;-71
2022/07/13 06:06:53;;;;;;;2.20;2.00;;;17.80;99.90;;;;;;4985538;28;20023;-72
2022/07/13 06:09:19;;;;;;;5.30;2.80;;;17.90;99.90;;;;;;4966256;28;20086;-71
2022/07/13 06:11:46;;;;;;;2.90;2.30;;;18.00;99.90;;;;;;4965309;28;20037;-71
2022/07/13 06:14:13;;;;;;;3.53;2.30;;;18.10;99.90;;;;;;4966050;28;20073;-71
2022/07/13 06:16:39;;;;;;;3.53;2.30;;;18.10;99.90;;;;;;4966223;29;20035;-71
2022/07/13 06:19:04;;;;;;;3.53;2.87;;;18.20;99.90;;;;;;4966090;28;20034;-71
2022/07/13 06:21:30;;;;;;;4.00;2.37;;;18.20;99.90;;;;;;4964983;29;20025;-71
2022/07/13 06:23:56;;;;;;;4.17;2.23;;;18.30;99.90;;;;;;4965433;28;20316;-71
2022/07/13 06:26:22;;;;;;;5.50;2.57;;;18.40;99.90;;;;;;4965843;29;20058;-72
2022/07/13 06:28:48;;;;;;;4.87;2.23;;;18.40;99.90;;;;;;4965783;29;20023;-72
2022/07/13 06:31:13;;;;;;;4.53;2.73;;;18.40;99.90;;;;;;4964572;28;20083;-72
2022/07/13 06:33:41;;;;;;;8.17;2.73;;;18.50;99.90;;;;;;4984852;28;20023;-72
2022/07/13 06:36:08;;;;;;;2.50;2.30;;;18.50;99.90;;;;;;4985012;28;20027;-72
2022/07/13 06:38:34;;;;;;;5.15;3.33;;;18.60;99.90;;;;;;4984472;28;20054;-72
2022/07/13 06:41:00;;;;;;;4.43;2.50;;;18.70;99.90;;;;;;4984852;28;20018;-72
2022/07/13 06:43:26;;;;;;;5.50;2.33;;;18.80;99.90;;;;;;4983528;28;20077;-72
2022/07/13 06:45:52;;;;;;;3.60;2.80;;;18.80;99.90;;;;;;4983717;28;20026;-71
2022/07/13 06:48:17;;;;;;;8.03;4.20;;;18.80;99.90;;;;;;4983595;28;20042;-72
2022/07/13 06:50:43;;;;;;;4.27;2.97;;;18.90;99.90;;;;;;4984659;28;20022;-73
2022/07/13 06:53:09;;;;;;;4.77;2.73;;;19.00;99.90;;;;;;4982965;28;20046;-72
2022/07/13 06:55:35;;;;;;;2.47;2.23;;;19.00;99.90;;;;;;4984889;28;20318;-72
2022/07/13 06:58:01;;;;;;;4.00;2.47;;;19.10;99.90;;;;;;4984610;28;20042;-73
2022/07/13 07:00:26;;;;;;;6.93;2.57;;;19.10;99.90;;;;;;4983616;28;20023;-73
2022/07/13 07:02:52;;;;;;;4.77;2.53;;;19.20;99.90;;;;;;4984156;28;20078;-72
2022/07/13 07:05:18;;;;;;;4.73;2.17;;;19.30;99.90;;;;;;4966917;28;20082;-72
2022/07/13 07:07:45;;;;;;;2.15;1.73;;;19.30;99.90;;;;;;4983933;28;20282;-72
2022/07/13 07:10:11;;;;;;;3.03;2.60;;;19.40;99.90;;;;;;4984407;28;20029;-72
2022/07/13 07:12:37;;;;;;;6.83;2.70;;;19.40;99.90;;;;;;4984269;28;20105;-72
2022/07/13 07:15:03;;;;;;;4.07;2.63;;;19.50;99.90;;;;;;4982995;28;20034;-73
2022/07/13 07:17:29;;;;;;;3.63;2.60;;;19.60;99.90;;;;;;4984302;28;20097;-73
2022/07/13 07:20:04;;;;;;;5.07;2.90;;;19.60;99.90;;;;;;4983047;28;20050;-72
2022/07/13 07:22:30;;;;;;;5.65;2.92;;;19.60;99.90;;;;;;4983083;28;20352;-72
2022/07/13 07:24:56;;;;;;;8.60;3.90;;;19.70;99.90;;;;;;4983558;28;20349;-72
2022/07/13 07:27:23;;;;;;;3.80;3.38;;;19.70;99.50;;;;;;4982820;28;20342;-72
2022/07/13 07:29:48;;;;;;;7.95;2.33;;;19.70;99.80;;;;;;4983949;28;20033;-72
2022/07/13 07:32:14;;;;;;;7.33;2.80;;;19.80;99.80;;;;;;4983924;28;20022;-72
2022/07/13 07:34:40;;;;;;;6.03;2.37;;;19.80;99.10;;;;;;4983664;28;20073;-72
2022/07/13 07:37:05;;;;;;;7.50;3.30;;;19.90;99.20;;;;;;4983560;28;20110;-72
2022/07/13 07:39:31;;;;;;;6.03;3.23;;;19.90;99.20;;;;;;4983564;28;20027;-73
2022/07/13 07:41:57;;;;;;;6.40;3.10;;;20.00;98.90;;;;;;4983831;28;20093;-73
2022/07/13 07:44:23;;;;;;;4.67;2.47;;;20.10;98.20;;;;;;4983394;28;20027;-72
2022/07/13 07:46:49;;;;;;;4.32;2.20;;;20.10;98.20;;;;;;4982600;28;20023;-73
2022/07/13 07:49:15;;;;;;;8.27;2.90;;;20.10;98.40;;;;;;4982549;28;20094;-72
2022/07/13 07:51:41;;;;;;;9.02;2.28;;;20.30;99.10;;;;;;4983798;28;20015;-72
2022/07/13 07:54:07;;;;;;;4.10;2.23;;;20.30;99.10;;;;;;4983167;28;20038;-72
2022/07/13 07:56:33;;;;;;;3.70;2.37;;;20.40;99.20;;;;;;4983684;28;20050;-73
2022/07/13 07:59:00;;;;;;;4.90;2.22;;;20.50;99.20;;;;;;4983640;28;20090;-73
2022/07/13 08:01:27;;;;;;;6.30;2.17;;;20.60;98.90;;;;;;4983570;28;20226;-73
2022/07/13 08:03:54;;;;;;;7.57;2.28;;;20.70;99.00;;;;;;4983150;28;20066;-72
2022/07/13 08:06:20;;;;;;;3.90;2.67;;;20.80;98.60;;;;;;4983473;28;20019;-73
2022/07/13 08:08:46;;;;;;;4.83;1.97;;;20.80;99.00;;;;;;4983037;28;20027;-73
2022/07/13 08:11:16;;;;;;;5.43;2.77;;;20.90;98.60;;;;;;4983545;28;20094;-72
2022/07/13 08:13:42;;;;;;;4.45;2.00;;;21.00;99.00;;;;;;4981973;28;20053;-71
2022/07/13 08:16:08;;;;;;;8.18;2.33;;;21.10;98.90;;;;;;4981793;28;20023;-73
2022/07/13 08:18:34;;;;;;;4.90;2.10;;;21.30;99.20;;;;;;4981929;28;20350;-73
2022/07/13 08:21:00;;;;;;;4.83;2.37;;;21.30;98.30;;;;;;4983144;28;20302;-72
2022/07/13 08:26:10;;;;;;;4.40;1.92;;;21.50;97.70;;;;;;4983243;28;20093;-73
2022/07/13 08:28:36;;;;;;;3.63;2.23;;;21.60;97.80;;;;;;4981969;28;20019;-72
2022/07/13 08:31:01;;;;;;;7.03;2.20;;;21.70;98.30;;;;;;4983181;28;20035;-72
2022/07/13 08:38:56;;;;;;;6.30;2.50;;;22.00;97.90;;;;;;4982714;28;20363;-73
2022/07/13 08:41:23;;;;;;;3.73;2.10;;;22.10;97.00;;;;;;4983063;28;20027;-73
2022/07/13 08:43:48;;;;;;;8.70;2.22;;;22.20;96.40;;;;;;4981724;28;20023;-73
2022/07/13 08:46:14;;;;;;;5.07;2.37;;;22.30;96.50;;;;;;4983010;28;20082;-73
2022/07/13 08:48:41;;;;;;;4.60;2.03;;;22.40;96.20;;;;;;4983069;28;20018;-73
2022/07/13 08:51:06;;;;;;;5.70;1.90;;;22.40;96.00;;;;;;4965783;28;20022;-73
2022/07/13 08:53:34;;;;;;;4.47;2.17;;;22.50;96.00;;;;;;4982446;28;20034;-72
2022/07/13 08:55:59;;;;;;;4.80;2.08;;;22.50;96.60;;;;;;4982831;28;20018;-72
2022/07/13 08:58:25;;;;;;;12.40;7.57;;;22.40;96.60;;;;;;4965631;28;20029;-72
2022/07/13 09:00:51;;;;;;;12.77;8.53;;;22.40;95.50;;;;;;4983030;28;20329;-73
2022/07/13 09:03:17;;;;;;;4.60;2.77;;;22.40;95.70;;;;;;4982848;28;20037;-73
2022/07/13 09:05:43;;;;;;;5.13;2.13;;;22.40;95.90;;;;;;4982167;28;20031;-72
2022/07/13 09:08:10;;;;;;;5.18;2.25;;;22.50;95.30;;;;;;4962295;29;20230;-73
2022/07/13 09:10:57;;;;;;;3.53;1.98;;;22.50;95.60;;;;;;4962587;29;20437;-72
2022/07/13 09:13:38;;;;;;;2.22;1.73;;;22.60;95.30;;;;;;4962132;28;20079;-73
2022/07/13 09:16:24;;;;;;;4.78;2.50;;;22.80;95.40;;;;;;4963607;28;20026;-73
2022/07/13 09:18:59;;;;;;;4.75;2.00;;;23.00;95.80;;;;;;4963602;28;20030;-72
2022/07/13 09:21:26;;;;;;;5.72;2.20;;;23.20;95.70;;;;;;4963734;28;20019;-72
2022/07/13 09:23:58;;;;;;;4.93;1.45;;;23.40;94.20;;;;;;4981759;28;20038;-73
2022/07/13 09:26:53;;;;;;;3.33;2.35;;;23.50;94.10;;;;;;4983607;28;20057;-73
2022/07/13 09:29:19;;;;;;;2.05;1.90;;;23.70;94.20;;;;;;4985477;28;20025;-72
2022/07/13 09:31:52;;;;;;;5.07;1.90;;;23.90;93.40;;;;;;4969203;28;20051;-73
2022/07/13 09:34:19;;;;;;;3.58;2.35;;;24.00;93.60;;;;;;4986028;28;20026;-72
2022/07/13 09:36:45;;;;;;;3.10;2.00;;;24.20;93.20;;;;;;4986108;28;20035;-73
2022/07/13 09:39:11;;;;;;;2.67;1.40;;;24.30;92.70;;;;;;4984795;28;20486;-73
2022/07/13 09:41:37;;;;;;;3.25;2.00;;;24.40;92.10;;;;;;4985998;28;20030;-73
2022/07/13 09:47:04;;;;;;;1.52;1.42;;;24.60;91.50;;;;;;4985084;28;20126;-73
2022/07/13 09:49:43;;;;;;;2.50;1.73;;;24.70;91.80;;;;;;4985986;28;20314;-72
2022/07/13 09:52:11;;;;;;;3.83;1.35;;;24.70;90.50;;;;;;4984846;28;20218;-73
2022/07/13 09:54:39;;;;;;;2.35;1.58;;;24.90;90.00;;;;;;4984104;28;20555;-73
2022/07/13 09:57:10;;;;;;;2.03;1.48;;;25.00;89.70;;;;;;4984792;28;20023;-73
2022/07/13 09:59:37;;;;;;;2.63;1.58;;;25.10;89.90;;;;;;4984817;28;20094;-73
2022/07/13 10:02:03;;;;;;;3.22;1.50;;;25.10;89.90;;;;;;4984036;28;20030;-73
2022/07/13 10:04:29;;;;;;;1.60;1.40;;;25.20;88.30;;;;;;4985288;28;20317;-72
2022/07/13 10:06:55;;;;;;;3.03;1.60;;;25.20;87.80;;;;;;4984446;28;20031;-73
2022/07/13 10:09:28;;;;;;;2.78;1.40;;;25.10;87.70;;;;;;4985267;28;20085;-73
2022/07/13 10:11:53;;;;;;;2.03;1.23;;;25.10;86.40;;;;;;4984551;28;20019;-73
2022/07/13 10:14:19;;;;;;;2.13;1.60;;;25.20;86.00;;;;;;4984188;28;20377;-73
2022/07/13 10:16:45;;;;;;;2.53;1.65;;;25.40;86.20;;;;;;4985334;28;20031;-73
2022/07/13 10:19:11;;;;;;;2.45;1.33;;;25.40;86.00;;;;;;4985058;28;20069;-73
2022/07/13 10:22:01;;;;;;;3.13;1.30;;;25.40;84.30;;;;;;4985299;28;20066;-73
2022/07/13 10:24:30;;;;;;;3.40;1.40;;;25.50;83.60;;;;;;4984495;28;20030;-73
2022/07/13 10:27:19;;;;;;;3.10;1.35;;;25.60;83.70;;;;;;4984171;28;20231;-73
2022/07/13 10:30:21;;;;;;;2.00;1.20;;;25.90;81.90;;;;;;4983985;28;20035;-73
2022/07/13 10:32:47;;;;;;;4.68;1.70;;;26.10;82.40;;;;;;4984013;28;20034;-73
2022/07/13 10:35:16;;;;;;;1.98;1.20;;;26.20;82.10;;;;;;4983879;28;20046;-73
2022/07/13 10:38:00;;;;;;;1.23;1.00;;;26.20;81.70;;;;;;4983060;28;20102;-73
2022/07/13 10:40:33;;;;;;;2.35;0.90;;;26.20;77.80;;;;;;4984447;28;20086;-72
2022/07/13 10:43:00;;;;;;;1.65;0.90;;;26.20;78.00;;;;;;4983644;28;20226;-73
2022/07/13 10:45:38;;;;;;;0.90;0.80;;;26.40;77.90;;;;;;4984874;28;20027;-73
2022/07/13 10:48:26;;;;;;;0.70;0.70;;;26.50;75.70;;;;;;4983640;28;20218;-73
2022/07/13 10:50:54;;;;;;;2.00;0.80;;;26.70;75.30;;;;;;4974488;28;20531;-73
2022/07/13 10:53:21;;;;;;;0.88;0.88;;;26.80;72.90;;;;;;4984307;28;20250;-73
2022/07/13 10:55:50;;;;;;;3.42;1.00;;;26.90;73.90;;;;;;4984600;28;20036;-73
2022/07/13 10:58:31;;;;;;;2.35;1.10;;;27.00;72.80;;;;;;4983443;28;20035;-73
2022/07/13 11:01:01;;;;;;;1.63;0.70;;;27.10;74.90;;;;;;4984522;28;20033;-73
2022/07/13 11:03:43;;;;;;;1.52;1.00;;;27.20;73.80;;;;;;4983095;28;20373;-73
2022/07/13 11:06:13;;;;;;;4.13;0.82;;;27.40;73.90;;;;;;4969512;28;20098;-72
2022/07/13 11:08:39;;;;;;;1.00;0.90;;;27.50;70.90;;;;;;4982912;28;20029;-73
2022/07/13 11:11:12;;;;;;;1.67;0.85;;;27.70;70.70;;;;;;4984412;28;20450;-73
2022/07/13 11:13:39;;;;;;;4.50;1.38;;;27.90;68.50;;;;;;4983870;28;20086;-72
2022/07/13 11:16:08;;;;;;;;;;;27.90;69.50;;;;;;4983723;28;20084;-73
2022/07/13 11:18:37;;;;;;;1.85;0.90;;;28.00;69.80;;;;;;4983030;28;19909;-73
2022/07/13 11:21:14;;;;;;;1.10;1.00;;;28.00;67.40;;;;;;4983304;28;20023;-73
2022/07/13 11:26:48;;;;;;;1.90;1.00;;;28.00;68.40;;;;;;4984248;28;20427;-73
2022/07/13 11:29:45;;;;;;;1.45;0.88;;;28.10;70.30;;;;;;4984017;28;20081;-72
2022/07/13 11:32:11;;;;;;;1.35;0.98;;;28.10;66.80;;;;;;4982840;28;20329;-73
2022/07/13 11:34:36;;;;;;;1.15;0.95;;;28.20;67.30;;;;;;4982396;28;20033;-73
2022/07/13 11:37:02;;;;;;;1.42;0.80;;;28.20;68.00;;;;;;4982885;28;20049;-73
2022/07/13 11:39:33;;;;;;;2.63;1.00;;;28.20;69.90;;;;;;4982349;28;20042;-73
2022/07/13 11:42:00;;;;;;;0.98;0.93;;;28.10;70.10;;;;;;4982718;28;20023;-72
2022/07/13 11:44:29;;;;;;;1.30;1.08;;;27.90;69.60;;;;;;4983285;28;20037;-73
2022/07/13 11:46:56;;;;;;;7.53;1.05;;;27.80;68.30;;;;;;4982427;28;20019;-73
2022/07/13 11:49:23;;;;;;;3.72;1.10;;;27.70;69.00;;;;;;4982877;28;20029;-73
2022/07/13 11:51:49;;;;;;;1.60;0.90;;;27.70;69.60;;;;;;4982476;28;20049;-73
2022/07/13 11:54:17;;;;;;;1.60;1.30;;;27.60;67.60;;;;;;4982098;28;20026;-73
2022/07/13 11:56:50;;;;;;;2.47;0.80;;;27.70;67.80;;;;;;4983336;28;20033;-72
2022/07/13 11:59:38;;;;;;;1.77;0.82;;;27.80;69.50;;;;;;4982869;28;20053;-73
2022/07/13 12:02:08;;;;;;;1.00;0.75;;;28.10;68.20;;;;;;4984653;28;20222;-73
2022/07/13 12:04:34;;;;;;;1.60;1.23;;;28.30;66.60;;;;;;4984200;28;20026;-72
2022/07/13 12:07:21;;;;;;;1.67;0.93;;;28.50;67.10;;;;;;4967200;28;20027;-73
2022/07/13 12:09:57;;;;;;;0.85;0.80;;;28.80;65.30;;;;;;4982188;28;20203;-73
2022/07/13 12:12:34;;;;;;;1.48;1.10;;;28.90;65.90;;;;;;4982586;28;20417;-73
2022/07/13 12:15:00;;;;;;;0.80;0.77;;;28.90;65.70;;;;;;4982398;28;20031;-73
2022/07/13 12:17:28;;;;;;;0.70;0.57;;;28.90;64.30;;;;;;4982360;28;20031;-73
2022/07/13 12:20:16;;;;;;;2.45;0.90;;;28.80;63.10;;;;;;4983336;28;20072;-73
2022/07/13 12:22:57;;;;;;;2.00;0.75;;;28.80;64.30;;;;;;4983279;28;20053;-72
2022/07/13 12:25:28;;;;;;;3.83;1.35;;;28.80;63.90;;;;;;4982162;28;20031;-73
2022/07/13 12:27:55;;;;;;;2.75;0.90;;;28.80;64.80;;;;;;4983086;28;20022;-73
2022/07/13 12:30:21;;;;;;;1.40;0.80;;;28.80;65.00;;;;;;4982153;28;20041;-72
2022/07/13 12:33:05;;;;;;;2.00;0.77;;;28.80;64.40;;;;;;4981759;28;20575;-73
2022/07/13 12:35:36;;;;;;;2.20;0.80;;;28.80;63.70;;;;;;4983382;28;20030;-72
2022/07/13 12:38:14;;;;;;;1.75;0.68;;;28.90;63.50;;;;;;4982839;28;20098;-72
2022/07/13 12:40:49;;;;;;;0.82;0.55;;;28.90;60.40;;;;;;4982994;28;20129;-72
2022/07/13 12:43:35;;;;;;;0.60;0.60;;;29.10;61.70;;;;;;4982886;28;20025;-72
2022/07/13 12:46:03;;;;;;;2.00;0.70;;;29.30;61.20;;;;;;4983143;28;20038;-72
2022/07/13 12:48:33;;;;;;;1.92;0.82;;;29.50;59.90;;;;;;4982999;28;20078;-72
2022/07/13 12:51:11;;;;;;;2.17;0.75;;;29.80;60.60;;;;;;4983146;28;20027;-72
2022/07/13 12:53:52;;;;;;;1.98;1.08;;;29.90;59.70;;;;;;4981565;28;20034;-72
2022/07/13 12:56:19;;;;;;;1.13;0.80;;;30.10;59.60;;;;;;4983070;28;20027;-72
2022/07/13 12:58:48;;;;;;;1.15;0.70;;;30.00;57.90;;;;;;4981923;28;20023;-72
2022/07/13 13:01:34;;;;;;;1.17;0.82;;;29.80;57.70;;;;;;4984424;28;20329;-72
2022/07/13 13:04:02;;;;;;;1.23;0.90;;;29.60;56.70;;;;;;4985307;28;20049;-72
2022/07/13 13:06:28;;;;;;;2.35;0.70;;;29.40;58.30;;;;;;4986622;28;20043;-72